WetterOnline ( http://www.wetteronline.de )

Wetter aktuell Inchenhofen

Aktuelles Wetter: Augsburg/Mühlhausen (477m)

6-stündlich | Neueste Meldungen
Ortszeit Temperatur Wetter
Do, 21.03. 7:00 -3.0° C wolkenlos
Do, 21.03. 1:00 -2.2° C wolkenlos
Mi, 20.03. 19:00 3.2° C wolkenlos
Mi, 20.03. 13:00 7.4° C wolkenlos
Mi, 20.03. 7:00 -5.4° C wolkenlos
Mi, 20.03. 1:00 -3.7° C wolkenlos
Di, 19.03. 19:00 2.3° C wolkenlos
Di, 19.03. 13:00 6.7° C wolkig
Ortszeit Temperatur Wetter
Do, 21.03. 12:00 9.3° C fast wolkenlos
Do, 21.03. 11:50 9.3° C fast wolkenlos
Do, 21.03. 11:40 9.4° C leicht bewölkt
Do, 21.03. 11:30 8.8° C leicht bewölkt
Do, 21.03. 11:20 8.8° C leicht bewölkt
Do, 21.03. 11:10 8.6° C leicht bewölkt
Do, 21.03. 11:00 8.3° C leicht bewölkt
Do, 21.03. 10:30 7.6° C leicht bewölkt
Do, 21.03. 10:00 6.4° C wolkenlos
Do, 21.03. 9:30 5.7° C wolkenlos
Do, 21.03. 9:00 4.0° C wolkenlos
Ortszeit Relative Feuchte Sichtweite
Do, 21.03. 7:00 84% 14 km
Do, 21.03. 1:00 85% 30 km
Mi, 20.03. 19:00 63% 55 km
Mi, 20.03. 13:00 40% 26 km
Mi, 20.03. 7:00 93% 6 km
Mi, 20.03. 1:00 88% 30 km
Di, 19.03. 19:00 71% 40 km
Di, 19.03. 13:00 51% 40 km
Ortszeit Relative Feuchte Sichtweite
Do, 21.03. 12:00 38% 13 km
Do, 21.03. 11:50 38% -
Do, 21.03. 11:40 38% -
Do, 21.03. 11:30 43% 15 km
Do, 21.03. 11:20 43% -
Do, 21.03. 11:10 42% -
Do, 21.03. 11:00 43% 18 km
Do, 21.03. 10:30 45% 21 km
Do, 21.03. 10:00 49% 26 km
Do, 21.03. 9:30 52% 30 km
Do, 21.03. 9:00 59% 35 km
Ortszeit Niederschlagsmenge Niederschlagsart
Do, 21.03. 7:00 0.0 l/m2 in 12 Std. -
Do, 21.03. 1:00 0.0 l/m2 in 6 Std. -
Mi, 20.03. 19:00 0.0 l/m2 in 12 Std. -
Mi, 20.03. 13:00 0.0 l/m2 in 6 Std. -
Mi, 20.03. 7:00 0.0 l/m2 in 12 Std. -
Mi, 20.03. 1:00 0.0 l/m2 in 6 Std. -
Di, 19.03. 19:00 0.0 l/m2 in 12 Std. -
Di, 19.03. 13:00 0.0 l/m2 in 6 Std. -
Ortszeit Niederschlagsmenge Niederschlagsart
Do, 21.03. 12:00 0.0 l/m2 in 1 Std. -
Do, 21.03. 11:50 keine Meldung -
Do, 21.03. 11:40 keine Meldung -
Do, 21.03. 11:30 0.0 l/m2 in 1 Std. -
Do, 21.03. 11:20 keine Meldung -
Do, 21.03. 11:10 keine Meldung -
Do, 21.03. 11:00 0.0 l/m2 in 1 Std. -
Do, 21.03. 10:30 0.0 l/m2 in 1 Std. -
Do, 21.03. 10:00 0.0 l/m2 in 1 Std. -
Do, 21.03. 9:30 0.0 l/m2 in 1 Std. -
Do, 21.03. 9:00 0.0 l/m2 in 1 Std. -
Ortszeit Stärke Spitze Richtung
km/h Bft. km/h Grad Sektor
Do, 21.03. 7:00 4 1 7 300° NW
Do, 21.03. 1:00 6 1 9 80° O
Mi, 20.03. 19:00 9 2 31 100° O
Mi, 20.03. 13:00 14 3 25 20° N
Mi, 20.03. 7:00 4 1 7 200° S
Mi, 20.03. 1:00 6 1 9 90° O
Di, 19.03. 19:00 6 1 28 60° NO
Di, 19.03. 13:00 9 2 20 350° N
Ortszeit Stärke Spitze Richtung
km/h Bft. km/h Grad Sektor
Do, 21.03. 12:00 26 4 41 90° O
Do, 21.03. 11:50 26 4 - 90° O
Do, 21.03. 11:40 24 4 - 80° O
Do, 21.03. 11:30 22 4 41 80° O
Do, 21.03. 11:20 22 4 - 80° O
Do, 21.03. 11:10 20 4 - 100° O
Do, 21.03. 11:00 28 4 39 90° O
Do, 21.03. 10:30 25 4 32 110° O
Do, 21.03. 10:00 18 3 25 80° O
Do, 21.03. 9:30 14 3 22 100° O
Do, 21.03. 9:00 13 3 19 70° O
Ortszeit Untergrenze Bedeckung Gattung
total tief tief mittel hoch
Do, 21.03. 7:00 - 0/8 0/8 - - -
Do, 21.03. 1:00 - 0/8 0/8 - - -
Mi, 20.03. 19:00 - 0/8 0/8 - - -
Mi, 20.03. 13:00 - 0/8 0/8 - - -
Mi, 20.03. 7:00 - 0/8 0/8 - - -
Mi, 20.03. 1:00 - 0/8 0/8 - - -
Di, 19.03. 19:00 - 0/8 0/8 - - -
Di, 19.03. 13:00 1470 m 6/8 6/8 - - -
Ortszeit Bedeckungsgrad in Achtel und Wolkenuntergrenze
Do, 21.03. 12:00 2(10500m)
Do, 21.03. 11:50 2(10500m)
Do, 21.03. 11:40 1(9000m) 5(10500m)
Do, 21.03. 11:30 2(9000m) 3(10500m)
Do, 21.03. 11:20 2(9000m) 3(10500m)
Do, 21.03. 11:10 3(10500m)
Do, 21.03. 11:00 3(10500m)
Do, 21.03. 10:30 4(10500m)
Do, 21.03. 10:00 keine Wolken
Do, 21.03. 9:30 keine Wolken
Do, 21.03. 9:00 keine Wolken
Ortszeit Luftdruck NN (hPa) Tendenz (hPa in 3 Std.)
Do, 21.03. 7:00 1036 - 0,4
Do, 21.03. 1:00 1037 - 0,3
Mi, 20.03. 19:00 1036 + 0,7
Mi, 20.03. 13:00 1035 + 0,1
Mi, 20.03. 7:00 1037 + 1,3
Mi, 20.03. 1:00 1035 + 1,1
Di, 19.03. 19:00 1031 + 1,6
Di, 19.03. 13:00 1028 + 0,2
Ortszeit Luftdruck NN (hPa) Tendenz (hPa in 3 Std.)
Do, 21.03. 12:00 1034 - 0,5
Do, 21.03. 11:50 1034 keine Meldung
Do, 21.03. 11:40 1034 keine Meldung
Do, 21.03. 11:30 1034 - 0,3
Do, 21.03. 11:20 1034 keine Meldung
Do, 21.03. 11:10 1034 keine Meldung
Do, 21.03. 11:00 1035 0,0
Do, 21.03. 10:30 1035 + 0,3
Do, 21.03. 10:00 1035 + 0,7
Do, 21.03. 9:30 1035 + 0,9
Do, 21.03. 9:00 1036 + 0,5
Ortszeit Schneehöhe (cm)
Do, 21.03. 7:00 2
Do, 21.03. 1:00 0
Mi, 20.03. 19:00 0
Mi, 20.03. 13:00 0
Mi, 20.03. 7:00 2
Mi, 20.03. 1:00 0
Di, 19.03. 19:00 0
Di, 19.03. 13:00 0
Ortszeit Schneehöhe (cm)
Do, 21.03. 12:00 -
Do, 21.03. 11:50 -
Do, 21.03. 11:40 -
Do, 21.03. 11:30 -
Do, 21.03. 11:20 -
Do, 21.03. 11:10 -
Do, 21.03. 11:00 -
Do, 21.03. 10:30 -
Do, 21.03. 10:00 -
Do, 21.03. 9:30 -
Do, 21.03. 9:00 2
Link zu dieser Seite / Seite empfehlen

Das Wetter in ...